Terminal Aerodrome Forecast
Issued by NWS

Current Version | Previous Version | Graphics & Text | Print | Product List | Glossary On
Versions: 1 2 3 4 5 6 7 8 9 10 11 12 13 14 15 16
000
FTUS41 KPBZ 221100
TAFHLG
TAF
KHLG 221131Z 2212/2312 25006KT 6SM -RA OVC040
     FM221400 21010G20KT 6SM -RA BKN020
     FM221800 33012G24KT P6SM BKN035
     FM230200 33010KT P6SM BKN040
     FM230700 33012G25KT P6SM OVC015=

USA.gov is the U.S. government's official web portal to all federal, state and local government web resources and services.